createdAt,value
2018-06-01T00:02:03.059Z,15.90
2018-06-01T00:04:30.673Z,15.80
2018-06-01T00:06:58.291Z,15.80
2018-06-01T00:09:26.693Z,15.80
2018-06-01T00:11:54.319Z,15.70
2018-06-01T00:14:21.937Z,15.80
2018-06-01T00:16:49.521Z,15.80
2018-06-01T00:19:17.136Z,15.70
2018-06-01T00:21:44.759Z,15.70
2018-06-01T00:24:12.355Z,15.70
2018-06-01T00:26:39.943Z,15.70
2018-06-01T00:29:07.540Z,15.70
2018-06-01T00:31:35.168Z,15.70
2018-06-01T00:34:02.747Z,15.70
2018-06-01T00:36:30.350Z,15.70
2018-06-01T00:38:57.936Z,15.60
2018-06-01T00:41:25.560Z,15.70
2018-06-01T00:43:53.191Z,15.70
2018-06-01T00:46:20.797Z,15.70
2018-06-01T00:48:48.413Z,15.70
2018-06-01T00:51:16.805Z,15.70
2018-06-01T00:53:45.169Z,15.70
2018-06-01T00:56:12.810Z,15.70
2018-06-01T00:58:40.399Z,15.70
2018-06-01T01:01:08.791Z,15.80
2018-06-01T01:03:37.144Z,15.80
2018-06-01T01:06:04.866Z,15.80
2018-06-01T01:08:33.049Z,15.80
2018-06-01T01:11:00.673Z,15.80
2018-06-01T01:13:28.301Z,15.80
2018-06-01T01:15:55.920Z,15.80
2018-06-01T01:18:23.545Z,15.90
2018-06-01T01:20:51.916Z,15.80
2018-06-01T01:23:20.279Z,15.80
2018-06-01T01:25:47.870Z,15.80
2018-06-01T01:28:15.519Z,15.80
2018-06-01T01:30:43.889Z,15.80
2018-06-01T01:33:12.278Z,15.80
2018-06-01T01:35:39.859Z,15.80
2018-06-01T01:38:07.464Z,15.70
2018-06-01T01:40:35.107Z,15.60
2018-06-01T01:43:02.708Z,15.50
2018-06-01T01:45:31.054Z,15.50
2018-06-01T01:47:58.658Z,15.50
2018-06-01T01:50:26.278Z,15.50
2018-06-01T01:52:53.899Z,15.50
2018-06-01T01:55:21.506Z,15.50
2018-06-01T01:57:49.097Z,15.50
2018-06-01T02:00:17.469Z,15.60
2018-06-01T02:02:45.826Z,15.60
2018-06-01T02:05:14.221Z,15.60
2018-06-01T02:07:42.586Z,15.50
2018-06-01T02:10:10.219Z,15.50
2018-06-01T02:12:37.851Z,15.50
2018-06-01T02:15:05.459Z,15.60
2018-06-01T02:17:33.090Z,15.50
2018-06-01T02:20:00.699Z,15.50
2018-06-01T02:22:28.341Z,15.50
2018-06-01T02:24:55.959Z,15.50
2018-06-01T02:27:23.554Z,15.40
2018-06-01T02:29:51.180Z,15.50
2018-06-01T02:32:18.772Z,15.50
2018-06-01T02:34:46.369Z,15.40
2018-06-01T02:37:14.745Z,15.30
2018-06-01T02:39:43.110Z,15.30
2018-06-01T02:42:11.517Z,15.20
2018-06-01T02:44:39.200Z,15.20
2018-06-01T02:47:06.803Z,15.20
2018-06-01T02:49:35.184Z,15.20
2018-06-01T02:52:03.559Z,15.10
2018-06-01T02:54:31.979Z,15.00
2018-06-01T02:56:59.654Z,14.90
2018-06-01T02:59:27.239Z,14.90
2018-06-01T03:01:54.866Z,14.90
2018-06-01T03:04:22.460Z,14.80
2018-06-01T03:07:01.827Z,14.80
2018-06-01T03:09:30.197Z,14.80
2018-06-01T03:11:58.568Z,14.80
2018-06-01T03:14:26.209Z,14.70
2018-06-01T03:16:53.810Z,14.70
2018-06-01T03:19:21.416Z,14.70
2018-06-01T03:21:49.018Z,14.70
2018-06-01T03:24:17.380Z,14.70
2018-06-01T03:26:44.984Z,14.70
2018-06-01T03:29:12.669Z,14.60
2018-06-01T03:31:40.302Z,14.60
2018-06-01T03:34:07.928Z,14.60
2018-06-01T03:36:35.500Z,14.70
2018-06-01T03:39:06.639Z,14.70
2018-06-01T03:41:34.996Z,14.70
2018-06-01T03:44:02.620Z,14.70
2018-06-01T03:46:30.224Z,14.70
2018-06-01T03:48:57.794Z,14.60
2018-06-01T03:51:26.140Z,14.60
2018-06-01T03:53:53.749Z,14.60
2018-06-01T03:56:21.394Z,14.60
2018-06-01T03:58:49.781Z,14.60
2018-06-01T04:01:18.140Z,14.60
2018-06-01T04:03:45.722Z,14.60
2018-06-01T04:06:13.302Z,14.60
2018-06-01T04:08:40.934Z,14.50
2018-06-01T04:11:09.311Z,14.50
2018-06-01T04:13:37.721Z,14.60
2018-06-01T04:16:05.301Z,14.60
2018-06-01T04:18:32.910Z,14.60
2018-06-01T04:21:01.351Z,14.70
2018-06-01T04:23:28.950Z,14.60
2018-06-01T04:25:57.312Z,14.60
2018-06-01T04:28:25.661Z,14.60
2018-06-01T04:30:53.260Z,14.60
2018-06-01T04:33:21.644Z,14.60
2018-06-01T04:35:50.050Z,14.50
2018-06-01T04:38:17.621Z,14.50
2018-06-01T04:40:45.231Z,14.50
2018-06-01T04:43:13.624Z,14.50
2018-06-01T04:45:41.269Z,14.40
2018-06-01T04:48:08.898Z,14.40
2018-06-01T04:50:36.489Z,14.50
2018-06-01T04:53:04.860Z,14.50
2018-06-01T04:55:32.442Z,14.50
2018-06-01T04:58:00.041Z,14.60
2018-06-01T05:00:27.615Z,14.50
2018-06-01T05:02:55.195Z,14.50
2018-06-01T05:05:22.770Z,14.50
2018-06-01T05:07:50.367Z,14.50
2018-06-01T05:10:17.969Z,14.50
2018-06-01T05:12:45.537Z,14.50
2018-06-01T05:15:13.149Z,14.60
2018-06-01T05:17:40.810Z,14.60
2018-06-01T05:20:08.410Z,14.70
2018-06-01T05:22:36.048Z,14.70
2018-06-01T05:25:03.640Z,14.80
2018-06-01T05:27:32.030Z,14.90
2018-06-01T05:30:00.381Z,15.00
2018-06-01T05:32:27.950Z,15.00
2018-06-01T05:34:56.331Z,15.10
2018-06-01T05:37:24.702Z,15.20
2018-06-01T05:39:52.330Z,15.20
2018-06-01T05:42:19.906Z,15.30
2018-06-01T05:44:47.501Z,15.40
2018-06-01T05:47:15.921Z,15.60
2018-06-01T05:49:43.584Z,15.60
2018-06-01T05:52:11.171Z,15.70
2018-06-01T05:54:38.758Z,15.80
2018-06-01T05:57:07.125Z,16.00
2018-06-01T05:59:35.521Z,16.00
2018-06-01T06:02:03.125Z,16.00
2018-06-01T06:04:30.738Z,16.20
2018-06-01T06:06:58.350Z,16.40
2018-06-01T06:09:25.927Z,16.50
2018-06-01T06:11:55.006Z,16.60
2018-06-01T06:14:22.607Z,16.60
2018-06-01T06:16:50.970Z,16.80
2018-06-01T06:19:19.330Z,16.90
2018-06-01T06:21:46.980Z,16.90
2018-06-01T06:24:14.570Z,17.00
2018-06-01T06:26:42.940Z,17.10
2018-06-01T06:29:10.518Z,17.10
2018-06-01T06:31:38.849Z,17.40
2018-06-01T06:34:06.461Z,17.30
2018-06-01T06:36:34.851Z,17.60
2018-06-01T06:39:02.450Z,17.60
2018-06-01T06:41:30.033Z,17.70
2018-06-01T06:43:57.649Z,17.80
2018-06-01T06:46:25.261Z,17.90
2018-06-01T06:48:53.623Z,18.10
2018-06-01T06:51:21.223Z,18.10
2018-06-01T06:53:48.781Z,18.20
2018-06-01T06:56:16.348Z,18.20
2018-06-01T06:58:43.946Z,18.40
2018-06-01T07:01:11.551Z,18.50
2018-06-01T07:03:39.140Z,18.50
2018-06-01T07:06:07.276Z,18.50
2018-06-01T07:08:35.641Z,18.80
2018-06-01T07:11:04.055Z,18.90
2018-06-01T07:13:31.650Z,18.90
2018-06-01T07:15:59.740Z,19.00
2018-06-01T07:18:27.509Z,19.20
2018-06-01T07:20:55.910Z,19.50
2018-06-01T07:23:25.200Z,19.70
2018-06-01T07:25:53.744Z,19.80
2018-06-01T07:28:22.129Z,19.80
2018-06-01T07:30:49.772Z,20.00
2018-06-01T07:33:17.407Z,20.10
2018-06-01T07:35:45.130Z,20.20
2018-06-01T07:38:12.750Z,20.40
2018-06-01T07:40:40.339Z,20.60
2018-06-01T07:43:07.982Z,20.60
2018-06-01T07:45:35.581Z,20.80
2018-06-01T07:48:03.943Z,21.10
2018-06-01T07:50:31.868Z,21.00
2018-06-01T07:52:59.450Z,21.20
2018-06-01T07:55:27.077Z,21.40
2018-06-01T07:57:55.480Z,21.60
2018-06-01T08:00:23.071Z,21.70
2018-06-01T08:02:51.448Z,22.00
2018-06-01T08:05:19.040Z,22.00
2018-06-01T08:07:46.670Z,22.00
2018-06-01T08:10:14.289Z,22.30
2018-06-01T08:12:41.911Z,22.50
2018-06-01T08:15:10.283Z,22.80
2018-06-01T08:17:38.636Z,23.00
2018-06-01T08:20:06.269Z,22.90
2018-06-01T08:22:33.970Z,23.10
2018-06-01T08:25:01.570Z,23.30
2018-06-01T08:27:29.188Z,23.40
2018-06-01T08:29:56.792Z,23.60
2018-06-01T08:32:24.486Z,23.90
2018-06-01T08:34:52.158Z,24.10
2018-06-01T08:37:19.776Z,24.30
2018-06-01T08:39:47.357Z,24.50
2018-06-01T08:42:14.959Z,24.60
2018-06-01T08:44:43.339Z,25.00
2018-06-01T08:47:11.690Z,25.20
2018-06-01T08:49:39.426Z,25.20
2018-06-01T08:52:07.023Z,25.30
2018-06-01T08:54:34.621Z,25.50
2018-06-01T08:57:02.289Z,25.60
2018-06-01T08:59:37.774Z,25.80
2018-06-01T09:02:06.537Z,25.80
2018-06-01T09:04:35.034Z,26.20
2018-06-01T09:07:02.601Z,26.10
2018-06-01T09:09:30.170Z,26.30
2018-06-01T09:11:57.763Z,26.50
2018-06-01T09:14:25.399Z,26.60
2018-06-01T09:16:53.010Z,26.90
2018-06-01T09:19:20.641Z,26.90
2018-06-01T09:21:48.229Z,27.00
2018-06-01T09:24:15.844Z,27.10
2018-06-01T09:26:44.208Z,27.20
2018-06-01T09:29:11.802Z,27.20
2018-06-01T09:31:39.410Z,27.30
2018-06-01T09:34:07.010Z,27.40
2018-06-01T09:36:35.431Z,27.60
2018-06-01T09:39:03.121Z,27.60
2018-06-01T09:41:30.688Z,27.70
2018-06-01T09:43:58.309Z,27.90
2018-06-01T09:46:25.980Z,28.10
2018-06-01T09:48:53.570Z,28.20
2018-06-01T09:51:21.155Z,28.30
2018-06-01T09:53:49.521Z,28.60
2018-06-01T09:56:17.910Z,28.70
2018-06-01T09:58:46.239Z,28.80
2018-06-01T10:01:13.862Z,28.80
2018-06-01T10:03:41.482Z,29.00
2018-06-01T10:06:09.081Z,29.10
2018-06-01T10:08:36.709Z,29.20
2018-06-01T10:11:09.149Z,29.40
2018-06-01T10:13:36.736Z,29.30
2018-06-01T10:16:04.332Z,29.30
2018-06-01T10:18:31.926Z,29.50
2018-06-01T10:20:59.573Z,29.70
2018-06-01T10:23:27.190Z,29.90
2018-06-01T10:25:55.565Z,30.10
2018-06-01T10:28:23.949Z,30.10
2018-06-01T10:30:52.294Z,30.20
2018-06-01T10:33:19.929Z,30.20
2018-06-01T10:35:47.553Z,30.30
2018-06-01T10:38:15.990Z,30.60
2018-06-01T10:40:43.566Z,30.60
2018-06-01T10:43:11.209Z,30.60
2018-06-01T10:45:38.889Z,30.80
2018-06-01T10:48:06.489Z,31.00
2018-06-01T10:50:34.175Z,31.10
2018-06-01T10:53:01.789Z,31.30
2018-06-01T10:55:30.181Z,31.40
2018-06-01T10:57:57.816Z,31.30
2018-06-01T11:00:25.388Z,31.50
2018-06-01T11:02:53.777Z,31.70
2018-06-01T11:05:21.381Z,31.70
2018-06-01T11:07:48.971Z,31.80
2018-06-01T11:10:16.616Z,32.00
2018-06-01T11:12:44.234Z,32.00
2018-06-01T11:15:11.855Z,32.00
2018-06-01T11:17:40.215Z,32.20
2018-06-01T11:20:07.849Z,32.20
2018-06-01T11:22:35.508Z,32.30
2018-06-01T11:25:03.258Z,32.30
2018-06-01T11:27:30.859Z,32.30
2018-06-01T11:29:58.457Z,32.50
2018-06-01T11:32:26.031Z,32.50
2018-06-01T11:34:53.646Z,32.10
2018-06-01T11:37:21.260Z,31.80
2018-06-01T11:39:48.877Z,31.40
2018-06-01T11:42:17.260Z,31.90
2018-06-01T11:44:45.649Z,32.10
2018-06-01T11:47:14.049Z,32.30
2018-06-01T11:49:41.638Z,32.20
2018-06-01T11:52:09.257Z,32.40
2018-06-01T11:54:36.859Z,32.40
2018-06-01T11:57:04.449Z,32.50
2018-06-01T11:59:32.839Z,32.70
2018-06-01T12:02:01.180Z,32.70
2018-06-01T12:04:28.788Z,32.60
2018-06-01T12:06:56.379Z,32.60
2018-06-01T12:09:23.968Z,32.70
2018-06-01T12:11:51.588Z,32.70
2018-06-01T12:14:19.196Z,32.70
2018-06-01T12:16:46.791Z,32.70
2018-06-01T12:19:14.418Z,32.80
2018-06-01T12:21:42.804Z,32.90
2018-06-01T12:24:11.687Z,32.70
2018-06-01T12:26:40.150Z,32.70
2018-06-01T12:29:07.812Z,32.30
2018-06-01T12:31:35.429Z,31.90
2018-06-01T12:34:02.999Z,31.60
2018-06-01T12:36:30.650Z,31.30
2018-06-01T12:38:58.269Z,30.90
2018-06-01T12:41:25.870Z,30.50
2018-06-01T12:43:53.501Z,30.20
2018-06-01T12:46:21.910Z,29.90
2018-06-01T12:48:49.509Z,29.90
2018-06-01T12:51:17.135Z,29.70
2018-06-01T12:53:44.731Z,29.50
2018-06-01T12:56:12.370Z,29.30
2018-06-01T12:58:40.017Z,29.10
2018-06-01T13:01:07.617Z,29.00
2018-06-01T13:03:35.255Z,28.90
2018-06-01T13:06:02.843Z,28.80
2018-06-01T13:08:30.466Z,28.70
2018-06-01T13:10:58.060Z,28.60
2018-06-01T13:13:25.670Z,28.70
2018-06-01T13:15:53.308Z,28.70
2018-06-01T13:18:21.707Z,29.00
2018-06-01T13:20:49.397Z,29.00
2018-06-01T13:23:17.017Z,29.50
2018-06-01T13:25:44.616Z,29.90
2018-06-01T13:28:12.235Z,30.10
2018-06-01T13:30:39.846Z,30.30
2018-06-01T13:33:07.496Z,30.30
2018-06-01T13:35:35.088Z,30.30
2018-06-01T13:38:03.609Z,30.00
2018-06-01T13:40:31.249Z,30.00
2018-06-01T13:42:59.616Z,29.90
2018-06-01T13:45:28.017Z,29.80
2018-06-01T13:47:55.628Z,29.80
2018-06-01T13:50:23.267Z,29.80
2018-06-01T13:52:50.853Z,30.00
2018-06-01T13:55:18.490Z,30.30
2018-06-01T13:57:46.114Z,30.70
2018-06-01T14:00:13.721Z,31.00
2018-06-01T14:02:41.300Z,31.30
2018-06-01T14:05:08.928Z,31.60
2018-06-01T14:07:36.531Z,31.80
2018-06-01T14:10:04.995Z,31.30
2018-06-01T14:12:32.641Z,31.30
2018-06-01T14:15:00.253Z,31.10
2018-06-01T14:17:27.846Z,30.80
2018-06-01T14:19:55.448Z,30.50
2018-06-01T14:22:23.070Z,30.30
2018-06-01T14:24:50.677Z,30.20
2018-06-01T14:27:19.080Z,30.20
2018-06-01T14:29:46.770Z,30.20
2018-06-01T14:32:14.380Z,30.30
2018-06-01T14:34:42.800Z,30.20
2018-06-01T14:37:10.419Z,30.20
2018-06-01T14:39:38.804Z,29.90
2018-06-01T14:42:07.181Z,29.70
2018-06-01T14:44:35.530Z,29.60
2018-06-01T14:47:03.231Z,29.60
2018-06-01T14:49:30.825Z,29.60
2018-06-01T14:51:58.431Z,29.60
2018-06-01T14:54:26.854Z,29.60
2018-06-01T14:56:54.450Z,29.60
2018-06-01T14:59:22.075Z,29.70
2018-06-01T15:01:49.740Z,29.80
2018-06-01T15:04:17.373Z,29.80
2018-06-01T15:06:45.010Z,29.90
2018-06-01T15:09:13.370Z,30.00
2018-06-01T15:11:40.994Z,30.00
2018-06-01T15:14:08.599Z,30.00
2018-06-01T15:16:36.252Z,30.00
2018-06-01T15:19:03.861Z,29.90
2018-06-01T15:21:31.434Z,29.90
2018-06-01T15:23:59.098Z,29.90
2018-06-01T15:26:27.493Z,29.90
2018-06-01T15:28:55.106Z,29.90
2018-06-01T15:31:22.733Z,29.90
2018-06-01T15:33:50.369Z,30.00
2018-06-01T15:36:18.767Z,30.20
2018-06-01T15:38:46.385Z,30.20
2018-06-01T15:41:13.989Z,30.30
2018-06-01T15:43:41.579Z,30.30
2018-06-01T15:46:09.189Z,30.30
2018-06-01T15:48:36.828Z,30.20
2018-06-01T15:51:04.463Z,30.10
2018-06-01T15:53:32.068Z,29.90
2018-06-01T15:55:59.644Z,29.80
2018-06-01T15:58:27.235Z,29.60
2018-06-01T16:00:55.638Z,29.20
2018-06-01T16:03:23.271Z,29.20
2018-06-01T16:05:50.889Z,29.20
2018-06-01T16:08:18.508Z,29.10
2018-06-01T16:10:46.132Z,29.20
2018-06-01T16:13:14.557Z,29.30
2018-06-01T16:15:42.188Z,29.30
2018-06-01T16:18:10.602Z,29.20
2018-06-01T16:20:38.214Z,29.20
2018-06-01T16:23:06.611Z,29.10
2018-06-01T16:25:35.010Z,29.10
2018-06-01T16:28:02.617Z,29.10
2018-06-01T16:30:30.278Z,29.10
2018-06-01T16:32:57.924Z,29.00
2018-06-01T16:35:25.540Z,29.10
2018-06-01T16:37:53.225Z,29.10
2018-06-01T16:40:25.577Z,29.20
2018-06-01T16:42:53.190Z,29.30
2018-06-01T16:45:20.823Z,29.30
2018-06-01T16:47:48.457Z,29.40
2018-06-01T16:50:16.072Z,29.30
2018-06-01T16:52:43.718Z,29.40
2018-06-01T16:55:11.345Z,29.40
2018-06-01T16:57:39.228Z,29.40
2018-06-01T17:00:06.880Z,29.30
2018-06-01T17:02:39.438Z,29.20
2018-06-01T17:05:07.066Z,29.20
2018-06-01T17:07:35.316Z,29.10
2018-06-01T17:10:02.931Z,29.00
2018-06-01T17:12:31.288Z,28.80
2018-06-01T17:14:59.692Z,28.70
2018-06-01T17:17:27.365Z,28.70
2018-06-01T17:19:55.360Z,28.60
2018-06-01T17:22:22.975Z,28.50
2018-06-01T17:24:50.590Z,28.40
2018-06-01T17:27:18.250Z,28.30
2018-06-01T17:29:45.919Z,28.30
2018-06-01T17:32:13.509Z,28.30
2018-06-01T17:34:41.890Z,28.00
2018-06-01T17:39:45.025Z,27.90
2018-06-01T17:42:12.629Z,27.60
2018-06-01T17:44:40.231Z,27.30
2018-06-01T17:47:07.847Z,27.10
2018-06-01T17:49:35.466Z,26.90
2018-06-01T17:52:03.070Z,26.70
2018-06-01T17:54:30.695Z,26.50
2018-06-01T17:56:58.300Z,26.30
2018-06-01T17:59:31.085Z,26.20
2018-06-01T18:01:58.829Z,26.00
2018-06-01T18:04:26.489Z,25.80
2018-06-01T18:06:54.137Z,25.70
2018-06-01T18:09:21.750Z,25.40
2018-06-01T18:11:52.027Z,25.30
2018-06-01T18:14:20.851Z,25.20
2018-06-01T18:16:49.210Z,24.90
2018-06-01T18:19:16.840Z,24.90
2018-06-01T18:21:45.277Z,24.60
2018-06-01T18:24:12.911Z,24.60
2018-06-01T18:26:41.280Z,24.40
2018-06-01T18:29:08.882Z,24.40
2018-06-01T18:31:36.528Z,24.20
2018-06-01T18:34:04.889Z,23.90
2018-06-01T18:36:33.260Z,23.80
2018-06-01T18:39:00.880Z,23.70
2018-06-01T18:41:28.481Z,23.60
2018-06-01T18:43:56.129Z,23.40
2018-06-01T18:46:24.602Z,23.30
2018-06-01T18:48:52.999Z,23.10
2018-06-01T18:51:21.415Z,22.80
2018-06-01T18:53:49.655Z,22.80
2018-06-01T18:56:18.059Z,22.50
2018-06-01T18:58:45.673Z,22.50
2018-06-01T19:01:13.276Z,22.40
2018-06-01T19:03:40.913Z,22.20
2018-06-01T19:06:08.515Z,22.10
2018-06-01T19:08:36.186Z,22.00
2018-06-01T19:11:03.799Z,21.90
2018-06-01T19:13:32.176Z,21.60
2018-06-01T19:16:00.554Z,21.50
2018-06-01T19:18:28.970Z,21.40
2018-06-01T19:20:56.605Z,21.40
2018-06-01T19:23:24.975Z,21.20
2018-06-01T19:25:53.340Z,21.20
2018-06-01T19:28:20.975Z,21.20
2018-06-01T19:30:48.598Z,21.10
2018-06-01T19:33:16.258Z,21.00
2018-06-01T19:35:43.848Z,21.00
2018-06-01T19:38:11.479Z,20.90
2018-06-01T19:40:39.130Z,20.90
2018-06-01T19:43:07.510Z,20.80
2018-06-01T19:45:35.115Z,20.80
2018-06-01T19:48:02.972Z,20.80
2018-06-01T19:50:30.606Z,20.80
2018-06-01T19:52:58.222Z,20.80
2018-06-01T19:55:25.845Z,20.80
2018-06-01T19:57:53.507Z,20.80
2018-06-01T20:00:21.145Z,20.80
2018-06-01T20:02:48.741Z,20.80
2018-06-01T20:05:16.349Z,20.80
2018-06-01T20:07:44.708Z,20.80
2018-06-01T20:10:12.383Z,20.80
2018-06-01T20:12:40.769Z,20.80
2018-06-01T20:15:09.148Z,20.80
2018-06-01T20:17:37.525Z,20.90
2018-06-01T20:20:05.940Z,20.90
2018-06-01T20:22:33.548Z,20.90
2018-06-01T20:25:01.918Z,20.80
2018-06-01T20:27:29.549Z,20.80
2018-06-01T20:29:57.169Z,20.70
2018-06-01T20:32:25.529Z,20.40
2018-06-01T20:34:53.920Z,20.20
2018-06-01T20:37:21.544Z,20.20
2018-06-01T20:39:49.149Z,19.90
2018-06-01T20:42:16.717Z,19.60
2018-06-01T20:44:44.350Z,19.30
2018-06-01T20:47:12.713Z,18.90
2018-06-01T20:49:40.348Z,18.80
2018-06-01T20:52:07.954Z,18.70
2018-06-01T20:54:35.551Z,18.60
2018-06-01T20:57:03.166Z,18.60
2018-06-01T20:59:31.590Z,18.50
2018-06-01T21:01:59.199Z,18.50
2018-06-01T21:04:27.569Z,18.30
2018-06-01T21:06:55.194Z,18.30
2018-06-01T21:09:22.791Z,18.10
2018-06-01T21:11:50.411Z,18.00
2018-06-01T21:14:18.006Z,18.00
2018-06-01T21:16:45.609Z,17.90
2018-06-01T21:19:13.223Z,17.90
2018-06-01T21:21:40.819Z,17.90
2018-06-01T21:24:08.427Z,17.80
2018-06-01T21:26:36.069Z,17.80
2018-06-01T21:29:04.450Z,17.80
2018-06-01T21:31:32.200Z,17.80
2018-06-01T21:33:59.775Z,17.80
2018-06-01T21:36:27.373Z,17.70
2018-06-01T21:38:55.011Z,17.70
2018-06-01T21:41:22.665Z,17.60
2018-06-01T21:43:50.278Z,17.50
2018-06-01T21:46:17.881Z,17.40
2018-06-01T21:48:45.477Z,17.30
2018-06-01T21:51:13.894Z,17.20
2018-06-01T21:53:41.489Z,17.20
2018-06-01T21:56:09.105Z,17.10
2018-06-01T21:58:36.747Z,17.00
2018-06-01T22:01:05.130Z,17.00
2018-06-01T22:03:32.756Z,17.00
2018-06-01T22:06:00.351Z,17.10
2018-06-01T22:08:27.935Z,17.20
2018-06-01T22:10:55.549Z,17.00
2018-06-01T22:13:23.940Z,17.00
2018-06-01T22:15:52.318Z,17.00
2018-06-01T22:18:20.687Z,17.00
2018-06-01T22:20:49.028Z,17.00
2018-06-01T22:23:16.609Z,17.00
2018-06-01T22:25:44.180Z,16.90
2018-06-01T22:28:12.551Z,16.90
2018-06-01T22:30:40.169Z,16.90
2018-06-01T22:33:07.790Z,17.00
2018-06-01T22:35:36.174Z,17.00
2018-06-01T22:38:04.582Z,17.00
2018-06-01T22:40:32.213Z,17.00
2018-06-01T22:43:00.587Z,16.80
2018-06-01T22:45:28.960Z,16.80
2018-06-01T22:47:57.332Z,16.70
2018-06-01T22:50:25.788Z,16.60
2018-06-01T22:52:53.432Z,16.60
2018-06-01T22:55:21.047Z,16.60
2018-06-01T22:57:49.413Z,16.50
2018-06-01T23:00:23.805Z,16.40
2018-06-01T23:02:51.430Z,16.40
2018-06-01T23:05:19.060Z,16.30
2018-06-01T23:07:47.442Z,16.20
2018-06-01T23:10:15.896Z,16.20
2018-06-01T23:12:43.489Z,16.20
2018-06-01T23:15:11.120Z,16.10
2018-06-01T23:17:39.481Z,15.90
2018-06-01T23:20:07.065Z,15.90
2018-06-01T23:22:35.459Z,15.80
2018-06-01T23:25:03.105Z,15.90
2018-06-01T23:27:30.667Z,15.80
2018-06-01T23:29:59.071Z,15.80
2018-06-01T23:32:26.638Z,15.80
2018-06-01T23:34:54.240Z,15.80
2018-06-01T23:37:21.860Z,15.70
2018-06-01T23:39:49.460Z,15.70
2018-06-01T23:42:17.079Z,15.60
2018-06-01T23:44:44.681Z,15.60
2018-06-01T23:47:12.280Z,15.50
2018-06-01T23:49:39.880Z,15.40
2018-06-01T23:52:07.485Z,15.40
2018-06-01T23:54:36.789Z,15.40
2018-06-01T23:57:05.206Z,15.40
2018-06-01T23:59:34.124Z,15.40
